Time;durP1;ratioP1;P1;durP2;ratioP2;P2;SDS_P1;SDS_P2;PMS_P1;PMS_P2;Temp;Humidity;BMP_temperature;BMP_pressure;BME280_temperature;BME280_humidity;BME280_pressure;Samples;Min_cycle;Max_cycle;Signal;HPM_P1;HPM_P2
2023/06/25 00:02:09;;;;;;;;;;;21.00;85.50;;;;;;6239941;28;1331;-76
2023/06/25 00:05:11;;;;;;;;;;;20.90;85.50;;;;;;6229993;28;1042;-75
2023/06/25 00:08:14;;;;;;;;;;;21.00;85.80;;;;;;6229542;28;1902;-74
2023/06/25 00:11:16;;;;;;;;;;;20.90;85.90;;;;;;6233334;28;1421;-75
2023/06/25 00:14:17;;;;;;;;;;;20.80;85.80;;;;;;6254030;28;1489;-75
2023/06/25 00:17:21;;;;;;;;;;;20.60;86.10;;;;;;6253789;28;1094;-75
2023/06/25 00:20:23;;;;;;;;;;;20.50;86.50;;;;;;6250764;28;1506;-76
2023/06/25 00:23:26;;;;;;;;;;;20.40;86.50;;;;;;6207025;28;1417;-76
2023/06/25 00:26:30;;;;;;;;;;;20.50;87.20;;;;;;6205461;28;1325;-75
2023/06/25 00:29:31;;;;;;;;;;;20.60;87.60;;;;;;6210486;28;1898;-76
2023/06/25 00:32:33;;;;;;;;;;;20.70;87.70;;;;;;6237091;28;1545;-75
2023/06/25 00:36:05;;;;;;;;;;;20.70;87.80;;;;;;6229193;28;1121;-75
2023/06/25 00:39:09;;;;;;;;;;;20.70;88.00;;;;;;6229299;28;1027;-76
2023/06/25 00:42:10;;;;;;;;;;;20.60;87.90;;;;;;6237434;28;1460;-74
2023/06/25 00:45:14;;;;;;;;;;;20.50;88.40;;;;;;6253935;28;1156;-76
2023/06/25 00:48:16;;;;;;;;;;;20.40;88.70;;;;;;6253155;28;1973;-75
2023/06/25 00:51:21;;;;;;;;;;;20.40;89.50;;;;;;6247096;28;1405;-77
2023/06/25 00:54:24;;;;;;;;;;;20.50;89.60;;;;;;6228927;28;1266;-76
2023/06/25 00:57:27;;;;;;;;;;;20.50;89.60;;;;;;6229593;28;1461;-75
2023/06/25 01:00:30;;;;;;;;;;;20.50;89.60;;;;;;6235104;28;1485;-76
2023/06/25 01:03:36;;;;;;;;;;;20.40;89.40;;;;;;6228720;28;1389;-76
2023/06/25 01:06:42;;;;;;;;;;;20.10;89.50;;;;;;6228385;28;1171;-76
2023/06/25 01:09:48;;;;;;;;;;;20.00;89.70;;;;;;6236918;28;1867;-74
2023/06/25 01:12:49;;;;;;;;;;;19.90;90.20;;;;;;6253480;28;1440;-76
2023/06/25 01:15:51;;;;;;;;;;;19.90;90.50;;;;;;6253960;28;1210;-76
2023/06/25 01:18:53;;;;;;;;;;;19.90;90.50;;;;;;6250755;28;1643;-75
2023/06/25 01:21:54;;;;;;;;;;;20.00;90.60;;;;;;6240025;28;1413;-77
2023/06/25 01:24:58;;;;;;;;;;;19.90;90.80;;;;;;6227551;28;980;-74
2023/06/25 01:27:59;;;;;;;;;;;19.90;90.70;;;;;;6228048;28;1906;-76
2023/06/25 01:31:03;;;;;;;;;;;19.90;90.90;;;;;;6227711;28;1484;-74
2023/06/25 01:34:06;;;;;;;;;;;19.80;90.90;;;;;;6203218;28;1261;-75
2023/06/25 01:37:08;;;;;;;;;;;19.60;90.90;;;;;;6203056;28;1113;-75
2023/06/25 01:40:12;;;;;;;;;;;19.40;91.20;;;;;;6217706;28;2055;-74
2023/06/25 01:43:14;;;;;;;;;;;19.30;91.40;;;;;;6232887;28;1433;-74
2023/06/25 01:46:15;;;;;;;;;;;19.20;91.80;;;;;;6238927;28;1412;-76
2023/06/25 01:49:17;;;;;;;;;;;19.10;91.90;;;;;;6251376;28;1871;-76
2023/06/25 01:52:19;;;;;;;;;;;19.10;92.10;;;;;;6238787;28;1410;-74
2023/06/25 01:55:22;;;;;;;;;;;19.10;92.50;;;;;;6225841;28;1104;-76
2023/06/25 01:58:23;;;;;;;;;;;19.10;92.30;;;;;;6226070;28;1073;-77
2023/06/25 02:01:25;;;;;;;;;;;19.20;92.70;;;;;;6203843;28;1450;-76
2023/06/25 02:04:27;;;;;;;;;;;19.20;92.60;;;;;;6219251;28;1548;-77
2023/06/25 02:07:29;;;;;;;;;;;19.20;92.50;;;;;;6250323;28;1034;-75
2023/06/25 02:10:32;;;;;;;;;;;19.30;92.70;;;;;;6250273;28;1902;-75
2023/06/25 02:13:34;;;;;;;;;;;19.10;92.40;;;;;;6243180;28;1476;-76
2023/06/25 02:16:36;;;;;;;;;;;19.00;92.80;;;;;;6225511;28;921;-76
2023/06/25 02:19:37;;;;;;;;;;;19.00;92.70;;;;;;6225491;28;1091;-74
2023/06/25 02:22:39;;;;;;;;;;;18.80;93.00;;;;;;6225582;28;1076;-76
2023/06/25 02:25:42;;;;;;;;;;;18.70;93.40;;;;;;6241353;28;1501;-74
2023/06/25 02:28:44;;;;;;;;;;;18.70;93.60;;;;;;6249645;28;2001;-77
2023/06/25 02:31:45;;;;;;;;;;;18.70;93.60;;;;;;6249996;28;1092;-75
2023/06/25 02:34:47;;;;;;;;;;;18.50;93.40;;;;;;6247974;28;1460;-73
2023/06/25 02:37:49;;;;;;;;;;;18.40;93.70;;;;;;6239511;28;1476;-77
2023/06/25 02:40:52;;;;;;;;;;;18.50;94.40;;;;;;6225393;28;1055;-75
2023/06/25 02:43:53;;;;;;;;;;;18.50;94.20;;;;;;6226088;28;1515;-75
2023/06/25 02:46:55;;;;;;;;;;;18.50;94.30;;;;;;6248550;28;1527;-75
2023/06/25 02:49:57;;;;;;;;;;;18.50;94.70;;;;;;6243457;28;1902;-75
2023/06/25 02:52:58;;;;;;;;;;;18.50;94.90;;;;;;6248802;28;1420;-74
2023/06/25 02:56:01;;;;;;;;;;;18.60;94.70;;;;;;6231800;28;1969;-75
2023/06/25 02:59:03;;;;;;;;;;;18.60;94.60;;;;;;6225121;28;1115;-74
2023/06/25 03:02:06;;;;;;;;;;;18.60;94.60;;;;;;6224956;28;1080;-77
2023/06/25 03:05:08;;;;;;;;;;;18.60;94.10;;;;;;6224977;28;1417;-75
2023/06/25 03:08:10;;;;;;;;;;;18.60;94.40;;;;;;6207720;28;1109;-75
2023/06/25 03:11:14;;;;;;;;;;;18.50;94.40;;;;;;6224374;28;1898;-77
2023/06/25 03:14:16;;;;;;;;;;;18.20;94.30;;;;;;6226211;28;1413;-76
2023/06/25 03:17:17;;;;;;;;;;;18.10;94.70;;;;;;6248435;28;1405;-77
2023/06/25 03:20:19;;;;;;;;;;;18.00;94.90;;;;;;6249453;28;1038;-76
2023/06/25 03:23:21;;;;;;;;;;;17.90;95.20;;;;;;6249364;28;1021;-75
2023/06/25 03:26:24;;;;;;;;;;;17.90;95.50;;;;;;6210245;28;1719;-75
2023/06/25 03:29:26;;;;;;;;;;;17.80;95.20;;;;;;6200267;28;1906;-74
2023/06/25 03:32:27;;;;;;;;;;;17.70;95.60;;;;;;6200474;28;1095;-74
2023/06/25 03:35:29;;;;;;;;;;;17.60;95.70;;;;;;6217183;28;1398;-75
2023/06/25 03:38:31;;;;;;;;;;;17.70;95.90;;;;;;6247827;28;1424;-73
2023/06/25 03:41:34;;;;;;;;;;;17.60;95.90;;;;;;6249155;28;1147;-75
2023/06/25 03:44:35;;;;;;;;;;;17.50;96.00;;;;;;6247556;28;1417;-74
2023/06/25 03:47:37;;;;;;;;;;;17.50;96.50;;;;;;6257528;28;1057;-75
2023/06/25 03:50:39;;;;;;;;;;;17.70;96.50;;;;;;6256289;28;1979;-74
2023/06/25 03:53:40;;;;;;;;;;;17.80;96.50;;;;;;6260864;28;2045;-75
2023/06/25 03:56:43;;;;;;;;;;;17.80;96.90;;;;;;6255321;28;1504;-77
2023/06/25 03:59:45;;;;;;;;;;;17.80;96.50;;;;;;6241084;28;1215;-75
2023/06/25 04:02:47;;;;;;;;;;;17.80;96.70;;;;;;6236271;28;1416;-76
2023/06/25 04:05:49;;;;;;;;;;;17.80;96.80;;;;;;6238497;28;1726;-76
2023/06/25 04:08:50;;;;;;;;;;;17.90;97.00;;;;;;6253658;28;1981;-73
2023/06/25 04:11:53;;;;;;;;;;;18.00;97.00;;;;;;6253966;28;1314;-76
2023/06/25 04:14:55;;;;;;;;;;;18.10;96.80;;;;;;6254103;28;1575;-77
2023/06/25 04:17:57;;;;;;;;;;;18.10;96.60;;;;;;6254678;28;1112;-75
2023/06/25 04:20:58;;;;;;;;;;;18.10;96.60;;;;;;6252711;28;1031;-76
2023/06/25 04:24:00;;;;;;;;;;;18.20;96.60;;;;;;6252379;28;1031;-75
2023/06/25 04:27:04;;;;;;;;;;;18.20;96.50;;;;;;6231092;28;1519;-76
2023/06/25 04:30:07;;;;;;;;;;;18.20;96.70;;;;;;6229892;28;2036;-75
2023/06/25 04:33:09;;;;;;;;;;;18.30;96.70;;;;;;6252197;28;1112;-73
2023/06/25 04:36:11;;;;;;;;;;;18.30;96.70;;;;;;6238280;28;1405;-75
2023/06/25 04:39:13;;;;;;;;;;;18.30;96.70;;;;;;6227685;28;1087;-77
2023/06/25 04:42:16;;;;;;;;;;;18.40;96.80;;;;;;6227521;28;1028;-75
2023/06/25 04:45:17;;;;;;;;;;;18.50;96.70;;;;;;6226264;28;1488;-74
2023/06/25 04:48:19;;;;;;;;;;;18.50;96.70;;;;;;6227255;28;1059;-75
2023/06/25 04:51:21;;;;;;;;;;;18.50;96.70;;;;;;6226729;28;1979;-76
2023/06/25 04:54:22;;;;;;;;;;;18.50;96.70;;;;;;6226957;28;1622;-74
2023/06/25 04:57:25;;;;;;;;;;;18.60;96.80;;;;;;6247425;28;1431;-75
2023/06/25 05:00:27;;;;;;;;;;;18.60;96.80;;;;;;6249172;28;1428;-76
2023/06/25 05:03:29;;;;;;;;;;;18.60;96.60;;;;;;6250198;28;1461;-74
2023/06/25 05:06:30;;;;;;;;;;;18.60;96.60;;;;;;6248910;28;1445;-74
2023/06/25 05:09:32;;;;;;;;;;;18.60;96.50;;;;;;6251303;28;1898;-76
2023/06/25 05:12:35;;;;;;;;;;;18.50;96.60;;;;;;6251430;28;1089;-76
2023/06/25 05:15:39;;;;;;;;;;;18.40;97.00;;;;;;6248993;28;1600;-74
2023/06/25 05:18:42;;;;;;;;;;;18.10;97.90;;;;;;6249487;28;1436;-76
2023/06/25 05:21:44;;;;;;;;;;;18.20;98.30;;;;;;6236312;28;2470;-75
2023/06/25 05:24:45;;;;;;;;;;;18.30;98.20;;;;;;6219097;28;2710;-76
2023/06/25 05:27:48;;;;;;;;;;;18.40;99.00;;;;;;6226206;28;1087;-75
2023/06/25 05:30:50;;;;;;;;;;;18.40;98.90;;;;;;6233893;28;2776;-76
2023/06/25 05:33:52;;;;;;;;;;;18.40;99.10;;;;;;6252405;28;1450;-76
2023/06/25 05:36:54;;;;;;;;;;;18.40;98.50;;;;;;6252814;28;1358;-76
2023/06/25 05:39:55;;;;;;;;;;;18.40;99.00;;;;;;6239247;28;1398;-75
2023/06/25 05:42:58;;;;;;;;;;;18.60;99.10;;;;;;6230921;28;2403;-75
2023/06/25 05:46:00;;;;;;;;;;;18.60;98.80;;;;;;6240301;28;1486;-76
2023/06/25 05:49:02;;;;;;;;;;;18.60;99.40;;;;;;6251121;28;1013;-75
2023/06/25 05:52:04;;;;;;;;;;;18.60;99.70;;;;;;6243857;28;1949;-75
2023/06/25 05:55:06;;;;;;;;;;;18.60;99.90;;;;;;6238283;28;1394;-75
2023/06/25 05:58:09;;;;;;;;;;;18.60;99.70;;;;;;6226838;28;1037;-78
2023/06/25 06:01:11;;;;;;;;;;;18.50;99.80;;;;;;6227679;28;2063;-76
2023/06/25 06:04:12;;;;;;;;;;;18.60;98.80;;;;;;6247431;28;1559;-73
2023/06/25 06:07:14;;;;;;;;;;;18.60;98.60;;;;;;6231640;28;1852;-76
2023/06/25 06:10:16;;;;;;;;;;;18.70;99.80;;;;;;6225461;28;1979;-75
2023/06/25 06:13:19;;;;;;;;;;;18.90;99.90;;;;;;6236098;28;2660;-76
2023/06/25 06:16:21;;;;;;;;;;;18.90;99.60;;;;;;6211761;28;2816;-75
2023/06/25 06:19:23;;;;;;;;;;;19.00;99.30;;;;;;6244839;28;3288;-78
2023/06/25 06:22:24;;;;;;;;;;;19.00;98.80;;;;;;6226960;28;2589;-75
2023/06/25 06:25:26;;;;;;;;;;;19.10;98.80;;;;;;6224947;28;2453;-77
2023/06/25 06:28:30;;;;;;;;;;;19.10;99.10;;;;;;6247041;28;1433;-75
2023/06/25 06:31:32;;;;;;;;;;;19.20;99.40;;;;;;6229272;28;1985;-75
2023/06/25 06:34:34;;;;;;;;;;;19.20;99.40;;;;;;6224258;28;1777;-77
2023/06/25 06:37:35;;;;;;;;;;;19.30;98.90;;;;;;6233624;28;2100;-77
2023/06/25 06:40:37;;;;;;;;;;;19.30;98.70;;;;;;6225043;28;1081;-76
2023/06/25 06:43:40;;;;;;;;;;;19.30;99.10;;;;;;6225939;28;1389;-76
2023/06/25 06:46:42;;;;;;;;;;;19.40;98.70;;;;;;6241677;28;1429;-78
2023/06/25 06:49:44;;;;;;;;;;;19.50;99.00;;;;;;6225955;28;1906;-76
2023/06/25 06:52:46;;;;;;;;;;;19.60;98.40;;;;;;6229596;28;1751;-75
2023/06/25 06:55:48;;;;;;;;;;;19.70;97.50;;;;;;6236767;28;1392;-75
2023/06/25 06:58:51;;;;;;;;;;;19.70;96.40;;;;;;6224836;28;1593;-75
2023/06/25 07:01:52;;;;;;;;;;;19.90;97.10;;;;;;6246358;28;1786;-75
2023/06/25 07:04:54;;;;;;;;;;;19.90;95.10;;;;;;6233355;28;1393;-75
2023/06/25 07:07:55;;;;;;;;;;;20.00;95.40;;;;;;6233579;28;1951;-74
2023/06/25 07:10:57;;;;;;;;;;;20.10;95.90;;;;;;6224474;28;1906;-76
2023/06/25 07:14:00;;;;;;;;;;;20.20;94.70;;;;;;6227047;28;1096;-76
2023/06/25 07:17:02;;;;;;;;;;;20.30;94.00;;;;;;6224667;28;1396;-73
2023/06/25 07:20:04;;;;;;;;;;;20.40;93.80;;;;;;6225154;28;1548;-74
2023/06/25 07:23:06;;;;;;;;;;;20.40;94.00;;;;;;6214091;28;2738;-69
2023/06/25 07:26:08;;;;;;;;;;;20.50;94.20;;;;;;6214445;28;2004;-70
2023/06/25 07:29:11;;;;;;;;;;;20.70;94.00;;;;;;6228899;28;1214;-70
2023/06/25 07:32:12;;;;;;;;;;;20.80;94.60;;;;;;6229204;28;1991;-69
2023/06/25 07:35:14;;;;;;;;;;;21.10;93.90;;;;;;6227828;28;1326;-69
2023/06/25 07:38:16;;;;;;;;;;;21.20;93.90;;;;;;6243290;28;1549;-69
2023/06/25 07:41:18;;;;;;;;;;;21.30;94.00;;;;;;6228673;28;1342;-70
2023/06/25 07:44:21;;;;;;;;;;;21.40;92.90;;;;;;6230332;28;1958;-70
2023/06/25 07:47:22;;;;;;;;;;;21.50;93.70;;;;;;6243032;28;1455;-69
2023/06/25 07:50:24;;;;;;;;;;;21.50;92.50;;;;;;6249850;28;1907;-70
2023/06/25 07:53:25;;;;;;;;;;;21.60;93.30;;;;;;6246456;28;1607;-69
2023/06/25 07:56:27;;;;;;;;;;;21.70;92.20;;;;;;6228396;28;1540;-69
2023/06/25 07:59:30;;;;;;;;;;;21.80;92.10;;;;;;6217520;28;1453;-70
2023/06/25 08:02:32;;;;;;;;;;;21.80;91.80;;;;;;6218818;28;1405;-71
2023/06/25 08:05:33;;;;;;;;;;;21.90;92.30;;;;;;6214725;28;966;-74
2023/06/25 08:08:35;;;;;;;;;;;21.90;91.60;;;;;;6241458;28;1409;-68
2023/06/25 08:11:37;;;;;;;;;;;22.10;91.50;;;;;;6253202;28;1886;-67
2023/06/25 08:14:40;;;;;;;;;;;22.20;91.00;;;;;;6252772;28;1021;-68
2023/06/25 08:17:41;;;;;;;;;;;22.30;90.60;;;;;;6245048;28;1396;-68
2023/06/25 08:20:43;;;;;;;;;;;22.40;90.70;;;;;;6241702;28;1405;-68
2023/06/25 08:23:45;;;;;;;;;;;22.40;90.60;;;;;;6249892;28;1401;-68
2023/06/25 08:26:46;;;;;;;;;;;22.50;88.60;;;;;;6242193;28;1441;-69
2023/06/25 08:29:49;;;;;;;;;;;22.60;86.20;;;;;;6226906;28;1504;-67
2023/06/25 08:32:51;;;;;;;;;;;22.70;89.60;;;;;;6241255;28;1910;-68
2023/06/25 08:35:55;;;;;;;;;;;22.70;84.40;;;;;;6251100;28;1137;-69
2023/06/25 08:38:56;;;;;;;;;;;22.80;86.20;;;;;;6227502;28;1445;-71
2023/06/25 08:41:59;;;;;;;;;;;22.90;89.70;;;;;;6227333;28;1594;-70
2023/06/25 08:45:02;;;;;;;;;;;23.00;83.40;;;;;;6227570;28;1049;-71
2023/06/25 08:48:05;;;;;;;;;;;23.10;82.60;;;;;;6227425;28;1046;-71
2023/06/25 08:51:10;;;;;;;;;;;23.20;80.80;;;;;;6226570;28;1968;-72
2023/06/25 08:54:11;;;;;;;;;;;23.30;78.60;;;;;;6225659;28;1456;-71
2023/06/25 08:57:13;;;;;;;;;;;23.50;77.30;;;;;;6225782;28;3110;-71
2023/06/25 09:00:17;;;;;;;;;;;23.50;75.60;;;;;;6226354;28;2454;-72
2023/06/25 09:03:19;;;;;;;;;;;23.60;78.00;;;;;;6225686;28;1965;-70
2023/06/25 09:06:21;;;;;;;;;;;23.80;73.00;;;;;;6245631;28;1396;-70
2023/06/25 09:09:23;;;;;;;;;;;23.80;71.10;;;;;;6239943;28;2842;-70
2023/06/25 09:12:25;;;;;;;;;;;23.90;71.00;;;;;;6210495;28;2964;-69
2023/06/25 09:15:28;;;;;;;;;;;24.00;69.50;;;;;;6225720;28;1675;-69
2023/06/25 09:18:30;;;;;;;;;;;24.00;70.60;;;;;;6226843;28;1096;-70
2023/06/25 09:21:36;;;;;;;;;;;24.10;68.70;;;;;;6225446;28;1425;-69
2023/06/25 09:24:42;;;;;;;;;;;24.20;71.90;;;;;;6226702;28;1128;-70
2023/06/25 09:27:45;;;;;;;;;;;24.20;69.50;;;;;;6226335;28;1154;-70
2023/06/25 09:30:48;;;;;;;;;;;24.40;68.90;;;;;;6222028;28;2809;-70
2023/06/25 09:33:51;;;;;;;;;;;24.40;74.30;;;;;;6236672;28;2544;-70
2023/06/25 09:36:53;;;;;;;;;;;24.50;67.20;;;;;;6248952;28;1461;-70
2023/06/25 09:39:55;;;;;;;;;;;24.60;66.30;;;;;;6250483;28;1346;-71
2023/06/25 09:42:58;;;;;;;;;;;24.60;66.00;;;;;;6244990;28;3237;-72
2023/06/25 09:46:02;;;;;;;;;;;24.60;66.30;;;;;;6222829;28;2454;-70
2023/06/25 09:49:04;;;;;;;;;;;24.70;67.30;;;;;;6243844;28;2151;-70
2023/06/25 09:52:09;;;;;;;;;;;24.70;65.80;;;;;;6225852;28;1985;-70
2023/06/25 09:55:11;;;;;;;;;;;24.70;65.20;;;;;;6231784;28;1426;-70
2023/06/25 09:58:13;;;;;;;;;;;24.80;63.40;;;;;;6250162;28;1151;-69
2023/06/25 10:01:16;;;;;;;;;;;24.80;73.80;;;;;;6244998;28;2362;-70
2023/06/25 10:04:17;;;;;;;;;;;24.80;65.90;;;;;;6202017;28;1512;-70
2023/06/25 10:07:21;;;;;;;;;;;24.80;64.70;;;;;;6225526;28;1151;-70
2023/06/25 10:10:24;;;;;;;;;;;25.00;64.60;;;;;;6201507;28;2015;-71
2023/06/25 10:13:26;;;;;;;;;;;25.00;63.90;;;;;;6233995;28;1499;-72
2023/06/25 10:16:33;;;;;;;;;;;25.00;62.40;;;;;;6224800;28;1551;-70
2023/06/25 10:19:35;;;;;;;;;;;25.00;62.30;;;;;;6228645;28;1389;-70
2023/06/25 10:22:38;;;;;;;;;;;25.00;62.10;;;;;;6250109;28;1084;-70
2023/06/25 10:25:40;;;;;;;;;;;25.20;61.00;;;;;;6236563;28;1394;-75
2023/06/25 10:28:51;;;;;;;;;;;25.20;59.90;;;;;;6225112;28;1100;-74
2023/06/25 10:31:54;;;;;;;;;;;25.30;60.10;;;;;;6225000;28;1985;-74
2023/06/25 10:34:56;;;;;;;;;;;25.30;60.50;;;;;;6223253;28;1389;-72
2023/06/25 10:37:58;;;;;;;;;;;25.30;59.60;;;;;;6243775;28;2845;-71
2023/06/25 10:40:59;;;;;;;;;;;25.30;59.00;;;;;;6218308;28;2978;-69
2023/06/25 10:44:01;;;;;;;;;;;25.30;58.00;;;;;;6246664;28;2382;-70
2023/06/25 10:47:05;;;;;;;;;;;25.40;59.80;;;;;;6243305;28;1472;-72
2023/06/25 10:50:08;;;;;;;;;;;25.60;59.80;;;;;;6246746;28;1409;-70
2023/06/25 10:53:11;;;;;;;;;;;25.80;57.90;;;;;;6246027;28;1902;-70
2023/06/25 10:56:12;;;;;;;;;;;25.80;56.50;;;;;;6246371;28;2358;-71
2023/06/25 10:59:22;;;;;;;;;;;25.80;57.10;;;;;;6223388;28;1441;-78
2023/06/25 11:02:26;;;;;;;;;;;25.80;58.50;;;;;;6223514;28;3197;-79
2023/06/25 11:05:35;;;;;;;;;;;25.90;58.70;;;;;;6224779;28;1333;-76
2023/06/25 11:08:37;;;;;;;;;;;26.00;56.30;;;;;;6211639;28;3160;-75
2023/06/25 11:11:38;;;;;;;;;;;25.90;55.70;;;;;;6221137;28;1914;-78
2023/06/25 11:14:40;;;;;;;;;;;26.00;57.80;;;;;;6248427;28;1615;-77
2023/06/25 11:17:43;;;;;;;;;;;26.00;56.10;;;;;;6249274;28;1040;-79
2023/06/25 11:20:45;;;;;;;;;;;26.00;56.60;;;;;;6246343;28;1965;-77
2023/06/25 11:23:46;;;;;;;;;;;26.00;55.70;;;;;;6224542;28;1055;-77
2023/06/25 11:26:48;;;;;;;;;;;26.10;55.90;;;;;;6224735;28;1116;-77
2023/06/25 11:29:50;;;;;;;;;;;26.10;55.20;;;;;;6218844;28;1591;-77
2023/06/25 11:32:53;;;;;;;;;;;26.40;56.50;;;;;;6220657;28;1983;-78
2023/06/25 11:36:06;;;;;;;;;;;26.30;55.60;;;;;;6220338;28;1457;-80
2023/06/25 11:39:08;;;;;;;;;;;26.30;55.00;;;;;;6221518;28;1029;-78
2023/06/25 11:42:14;;;;;;;;;;;26.40;55.30;;;;;;6228896;28;1436;-77
2023/06/25 11:45:16;;;;;;;;;;;26.40;54.50;;;;;;6245000;28;1413;-77
2023/06/25 11:48:20;;;;;;;;;;;26.50;54.30;;;;;;6243876;28;1097;-79
2023/06/25 11:51:21;;;;;;;;;;;26.60;54.70;;;;;;6236138;28;1969;-78
2023/06/25 11:54:24;;;;;;;;;;;26.70;54.50;;;;;;6221155;28;1120;-77
2023/06/25 11:57:25;;;;;;;;;;;26.80;55.80;;;;;;6221152;28;1079;-79
2023/06/25 12:00:27;;;;;;;;;;;27.10;55.40;;;;;;6220579;28;1338;-80
2023/06/25 12:03:30;;;;;;;;;;;27.00;53.60;;;;;;6235328;28;1385;-77
2023/06/25 12:06:32;;;;;;;;;;;27.00;53.90;;;;;;6221739;28;1357;-79
2023/06/25 12:09:34;;;;;;;;;;;27.00;52.70;;;;;;6225576;28;995;-77
2023/06/25 12:12:35;;;;;;;;;;;27.20;53.20;;;;;;6227872;28;1906;-78
2023/06/25 12:15:37;;;;;;;;;;;27.30;52.80;;;;;;6229671;28;1438;-76
2023/06/25 12:18:40;;;;;;;;;;;27.40;53.50;;;;;;6233098;28;1053;-79
2023/06/25 12:21:42;;;;;;;;;;;27.40;51.70;;;;;;6232554;28;1063;-77
2023/06/25 12:24:43;;;;;;;;;;;27.50;52.10;;;;;;6228127;28;1043;-78
2023/06/25 12:27:45;;;;;;;;;;;27.50;52.10;;;;;;6227881;28;1151;-78
2023/06/25 12:30:47;;;;;;;;;;;27.80;52.60;;;;;;6227916;28;1090;-80
2023/06/25 12:33:50;;;;;;;;;;;27.90;51.70;;;;;;6228006;28;1985;-80
2023/06/25 12:36:51;;;;;;;;;;;27.90;51.20;;;;;;6227477;28;1546;-77
2023/06/25 12:39:53;;;;;;;;;;;28.00;51.60;;;;;;6227595;28;1035;-79
2023/06/25 12:43:03;;;;;;;;;;;28.10;51.30;;;;;;6227698;28;1109;-78
2023/06/25 12:46:05;;;;;;;;;;;28.20;51.90;;;;;;6227672;28;1120;-76
2023/06/25 12:49:08;;;;;;;;;;;28.20;50.90;;;;;;6228458;28;1031;-79
2023/06/25 12:52:10;;;;;;;;;;;28.20;50.30;;;;;;6251844;28;1902;-77
2023/06/25 12:55:12;;;;;;;;;;;28.40;51.20;;;;;;6251925;28;1095;-78
2023/06/25 12:58:13;;;;;;;;;;;28.50;51.20;;;;;;6251641;28;1151;-77
2023/06/25 13:01:15;;;;;;;;;;;28.40;49.90;;;;;;6232101;28;1475;-76
2023/06/25 13:04:18;;;;;;;;;;;28.40;49.60;;;;;;6226969;28;1023;-78
2023/06/25 13:07:20;;;;;;;;;;;28.40;49.20;;;;;;6225996;28;2915;-77
2023/06/25 13:10:21;;;;;;;;;;;28.30;48.80;;;;;;6202624;28;1109;-77
2023/06/25 13:13:23;;;;;;;;;;;28.30;48.80;;;;;;6202851;28;1981;-78
2023/06/25 13:16:25;;;;;;;;;;;28.50;49.30;;;;;;6202448;28;1101;-79
2023/06/25 13:19:28;;;;;;;;;;;28.80;50.30;;;;;;6202229;28;1034;-78
2023/06/25 13:22:29;;;;;;;;;;;28.70;48.80;;;;;;6201938;28;990;-78
2023/06/25 13:25:31;;;;;;;;;;;29.00;50.00;;;;;;6226772;28;1642;-80
2023/06/25 13:28:33;;;;;;;;;;;29.30;50.30;;;;;;6226665;28;1121;-77
2023/06/25 13:31:34;;;;;;;;;;;29.10;48.10;;;;;;6226420;28;1985;-78
2023/06/25 13:34:37;;;;;;;;;;;29.30;49.90;;;;;;6226436;28;1122;-77
2023/06/25 13:37:39;;;;;;;;;;;29.30;50.20;;;;;;6232388;28;1460;-78
2023/06/25 13:40:41;;;;;;;;;;;29.10;48.40;;;;;;6246831;28;1408;-77
2023/06/25 13:43:43;;;;;;;;;;;29.00;48.60;;;;;;6250717;28;1029;-78
2023/06/25 13:46:45;;;;;;;;;;;29.00;48.40;;;;;;6229738;28;1530;-78
2023/06/25 13:49:48;;;;;;;;;;;29.20;47.90;;;;;;6250047;28;1093;-73
2023/06/25 13:52:50;;;;;;;;;;;29.30;48.10;;;;;;6250373;28;1910;-72
2023/06/25 13:55:52;;;;;;;;;;;29.30;47.60;;;;;;6250323;28;1099;-77
2023/06/25 13:58:54;;;;;;;;;;;29.20;47.90;;;;;;6245858;28;1433;-78
2023/06/25 14:01:56;;;;;;;;;;;29.50;48.10;;;;;;6250420;28;987;-76
2023/06/25 14:04:59;;;;;;;;;;;29.70;48.10;;;;;;6250122;28;1096;-75
2023/06/25 14:08:00;;;;;;;;;;;30.00;48.60;;;;;;6230128;28;3237;-77
2023/06/25 14:11:02;;;;;;;;;;;30.20;47.30;;;;;;6240529;28;1421;-76
2023/06/25 14:14:04;;;;;;;;;;;30.20;46.90;;;;;;6229365;28;2508;-75
2023/06/25 14:17:05;;;;;;;;;;;30.20;46.60;;;;;;6225309;28;1211;-77
2023/06/25 14:20:09;;;;;;;;;;;30.20;45.80;;;;;;6224112;28;1386;-74
2023/06/25 14:23:11;;;;;;;;;;;30.00;45.90;;;;;;6247923;28;1679;-76
2023/06/25 14:26:12;;;;;;;;;;;30.40;47.00;;;;;;6230914;28;3371;-76
2023/06/25 14:29:14;;;;;;;;;;;30.60;46.20;;;;;;6225154;28;1151;-76
2023/06/25 14:32:15;;;;;;;;;;;30.60;45.80;;;;;;6234342;28;1993;-77
2023/06/25 14:35:18;;;;;;;;;;;30.50;46.70;;;;;;6249041;28;1110;-77
2023/06/25 14:38:20;;;;;;;;;;;30.70;47.10;;;;;;6249432;28;1060;-78
2023/06/25 14:41:22;;;;;;;;;;;30.80;46.70;;;;;;6249656;28;1030;-79
2023/06/25 14:44:24;;;;;;;;;;;30.80;44.90;;;;;;6240466;28;1409;-77
2023/06/25 14:47:25;;;;;;;;;;;30.90;45.10;;;;;;6249353;28;1347;-77
2023/06/25 14:50:28;;;;;;;;;;;31.00;44.90;;;;;;6249639;28;1032;-78
2023/06/25 14:53:31;;;;;;;;;;;31.20;45.90;;;;;;6243703;28;1993;-73
2023/06/25 14:56:32;;;;;;;;;;;31.20;44.80;;;;;;6240576;28;2499;-77
2023/06/25 14:59:34;;;;;;;;;;;31.30;44.30;;;;;;6244405;28;2697;-77
2023/06/25 15:02:36;;;;;;;;;;;31.10;44.30;;;;;;6241868;28;1650;-76
2023/06/25 15:05:39;;;;;;;;;;;31.10;43.90;;;;;;6248743;28;1042;-78
2023/06/25 15:08:42;;;;;;;;;;;31.20;44.80;;;;;;6244469;28;1421;-79
2023/06/25 15:11:44;;;;;;;;;;;31.40;44.50;;;;;;6221914;28;1477;-75
2023/06/25 15:14:46;;;;;;;;;;;31.80;45.20;;;;;;6245519;28;1902;-76
2023/06/25 15:17:47;;;;;;;;;;;31.80;45.20;;;;;;6248768;28;1105;-75
2023/06/25 15:20:50;;;;;;;;;;;31.90;44.90;;;;;;6243807;28;1441;-75
2023/06/25 15:23:52;;;;;;;;;;;31.70;44.20;;;;;;6242377;28;1481;-78
2023/06/25 15:26:54;;;;;;;;;;;31.70;45.50;;;;;;6221141;28;2283;-78
2023/06/25 15:29:55;;;;;;;;;;;31.70;44.90;;;;;;6225356;28;1678;-78
2023/06/25 15:32:57;;;;;;;;;;;31.80;45.60;;;;;;6218727;28;1954;-74
2023/06/25 15:36:00;;;;;;;;;;;31.90;45.70;;;;;;6220006;28;1587;-78
2023/06/25 15:39:02;;;;;;;;;;;31.80;45.00;;;;;;6220501;28;1153;-77
2023/06/25 15:42:04;;;;;;;;;;;32.00;46.10;;;;;;6217250;28;2604;-78
2023/06/25 15:45:08;;;;;;;;;;;32.00;44.90;;;;;;6241566;28;1533;-76
2023/06/25 15:48:09;;;;;;;;;;;32.30;45.30;;;;;;6227961;28;1889;-77
2023/06/25 15:51:12;;;;;;;;;;;32.50;46.10;;;;;;6230879;28;1624;-76
2023/06/25 15:54:14;;;;;;;;;;;32.50;44.70;;;;;;6230291;28;1918;-79
2023/06/25 15:57:16;;;;;;;;;;;32.50;45.50;;;;;;6236161;28;1621;-78
2023/06/25 16:00:19;;;;;;;;;;;32.30;45.70;;;;;;6238252;28;1187;-74
2023/06/25 16:03:20;;;;;;;;;;;32.50;44.60;;;;;;6231165;28;1754;-75
2023/06/25 16:06:23;;;;;;;;;;;32.60;45.60;;;;;;6233523;28;1331;-75
2023/06/25 16:09:25;;;;;;;;;;;32.70;45.00;;;;;;6250222;28;1055;-77
2023/06/25 16:12:27;;;;;;;;;;;32.60;44.40;;;;;;6241896;28;2774;-76
2023/06/25 16:15:28;;;;;;;;;;;32.80;44.50;;;;;;6232426;28;1819;-76
2023/06/25 16:18:31;;;;;;;;;;;32.90;43.70;;;;;;6225103;28;1339;-78
2023/06/25 16:21:34;;;;;;;;;;;33.00;44.20;;;;;;6224877;28;1945;-77
2023/06/25 16:24:35;;;;;;;;;;;32.80;43.90;;;;;;6222167;28;1559;-77
2023/06/25 16:27:38;;;;;;;;;;;32.90;43.80;;;;;;6222364;28;1608;-78
2023/06/25 16:30:40;;;;;;;;;;;33.00;44.50;;;;;;6222548;28;2881;-74
2023/06/25 16:33:41;;;;;;;;;;;33.00;44.40;;;;;;6223314;28;2012;-74
2023/06/25 16:36:44;;;;;;;;;;;32.90;44.50;;;;;;6225724;28;1393;-76
2023/06/25 16:39:46;;;;;;;;;;;33.20;45.00;;;;;;6231160;28;1425;-77
2023/06/25 16:42:48;;;;;;;;;;;33.30;44.10;;;;;;6224059;28;1327;-76
2023/06/25 16:45:49;;;;;;;;;;;33.50;43.50;;;;;;6224520;28;1389;-74
2023/06/25 16:48:51;;;;;;;;;;;33.50;43.80;;;;;;6248620;28;1045;-76
2023/06/25 16:51:54;;;;;;;;;;;33.50;43.60;;;;;;6225034;28;2597;-84
2023/06/25 16:54:56;;;;;;;;;;;33.40;44.00;;;;;;6235095;28;2446;-81
2023/06/25 16:57:58;;;;;;;;;;;33.30;43.90;;;;;;6228793;28;1771;-82
2023/06/25 17:00:59;;;;;;;;;;;33.30;44.00;;;;;;6224129;28;1413;-78
2023/06/25 17:04:03;;;;;;;;;;;33.50;44.60;;;;;;6222394;28;1321;-77
2023/06/25 17:07:07;;;;;;;;;;;33.50;43.80;;;;;;6223234;28;1413;-84
2023/06/25 17:10:09;;;;;;;;;;;33.60;43.70;;;;;;6223807;28;2509;-82
2023/06/25 17:13:11;;;;;;;;;;;33.50;43.70;;;;;;6218281;28;2403;-81
2023/06/25 17:16:12;;;;;;;;;;;33.70;42.90;;;;;;6242424;28;1350;-78
2023/06/25 17:19:14;;;;;;;;;;;33.80;43.60;;;;;;6238198;28;1262;-82
2023/06/25 17:22:17;;;;;;;;;;;33.40;43.80;;;;;;6224391;28;1176;-81
2023/06/25 17:25:19;;;;;;;;;;;33.50;44.50;;;;;;6224902;28;1396;-83
2023/06/25 17:28:21;;;;;;;;;;;33.50;45.40;;;;;;6227111;28;2326;-82
2023/06/25 17:31:22;;;;;;;;;;;33.70;44.20;;;;;;6223846;28;1184;-81
2023/06/25 17:34:24;;;;;;;;;;;33.80;44.30;;;;;;6223987;28;1913;-83
2023/06/25 17:37:27;;;;;;;;;;;33.80;44.50;;;;;;6223268;28;1483;-77
2023/06/25 17:40:29;;;;;;;;;;;33.60;44.50;;;;;;6220346;28;1734;-77
2023/06/25 17:43:31;;;;;;;;;;;33.70;44.70;;;;;;6222300;28;1157;-75
2023/06/25 17:46:34;;;;;;;;;;;33.80;45.10;;;;;;6222602;28;1392;-78
2023/06/25 17:49:36;;;;;;;;;;;33.50;44.30;;;;;;6222774;28;1152;-78
2023/06/25 17:52:39;;;;;;;;;;;33.50;44.50;;;;;;6221888;28;1898;-78
2023/06/25 17:55:40;;;;;;;;;;;33.40;44.50;;;;;;6226987;28;1346;-78
2023/06/25 17:58:42;;;;;;;;;;;33.20;44.70;;;;;;6225904;28;2470;-78